Observation data for Olton on 07/11/2018      Previous  Date       Current Mesonet Observations  Soil Data  Daily Summary Page  Observations in Plain Language
KONS 110505Z 17007KT 23/15 A3016 RMK A01 T02320152  RH  062%=      5-min Rain = 0
KONS 110510Z 17007KT 23/15 A3016 RMK A01 T02320152  RH  062%=      5-min Rain = 0
KONS 110515Z 17007KT 23/15 A3016 RMK A01 T02300152  RH  063%=      5-min Rain = 0
KONS 110520Z 17007KT 23/15 A3016 RMK A01 T02290152  RH  063%=      5-min Rain = 0
KONS 110525Z 18007KT 23/15 A3016 RMK A01 T02270152  RH  064%=      5-min Rain = 0
KONS 110530Z 18007KT 22/15 A3016 RMK A01 T02240152  RH  065%=      5-min Rain = 0
KONS 110535Z 18007KT 22/15 A3016 RMK A01 T02230152  RH  066%=      5-min Rain = 0
KONS 110540Z 18007KT 22/15 A3016 RMK A01 T02230153  RH  066%=      5-min Rain = 0
KONS 110545Z 18007KT 22/15 A3016 RMK A01 T02220153  RH  066%=      5-min Rain = 0
KONS 110550Z 18008KT 22/15 A3016 RMK A01 T02210152  RH  066%=      5-min Rain = 0
KONS 110555Z 19007KT 22/15 A3016 RMK A01 T02190152  RH  067%=      5-min Rain = 0
KONS 110600Z 19007KT 22/15 A3016 RMK A01 T02170152  RH  068%=      5-min Rain = 0
KONS 110605Z 19008KT 22/15 A3016 RMK A01 T02160153  RH  069%=      5-min Rain = 0
KONS 110610Z 18007KT 22/15 A3016 RMK A01 T02160153  RH  069%=      5-min Rain = 0
KONS 110615Z 18007KT 22/15 A3016 RMK A01 T02150153  RH  069%=      5-min Rain = 0
KONS 110620Z 18007KT 21/15 A3016 RMK A01 T02140152  RH  069%=      5-min Rain = 0
KONS 110625Z 17007KT 22/15 A3016 RMK A01 T02150153  RH  069%=      5-min Rain = 0
KONS 110630Z 17006KT 22/15 A3016 RMK A01 T02160152  RH  068%=      5-min Rain = 0
KONS 110635Z 17006KT 22/15 A3016 RMK A01 T02160152  RH  068%=      5-min Rain = 0
KONS 110640Z 18006KT 22/15 A3016 RMK A01 T02160151  RH  068%=      5-min Rain = 0
KONS 110645Z 19008KT 21/15 A3016 RMK A01 T02130151  RH  070%=      5-min Rain = 0
KONS 110650Z 19007KT 21/15 A3016 RMK A01 T02100152  RH  071%=      5-min Rain = 0
KONS 110655Z 19007KT 21/15 A3016 RMK A01 T02090152  RH  071%=      5-min Rain = 0
KONS 110700Z 19007KT 21/15 A3017 RMK A01 T02080152  RH  072%=      5-min Rain = 0
KONS 110705Z 19007KT 21/15 A3017 RMK A01 T02060152  RH  073%=      5-min Rain = 0
KONS 110710Z 19006KT 21/15 A3017 RMK A01 T02050151  RH  073%=      5-min Rain = 0
KONS 110715Z 18006KT 21/15 A3017 RMK A01 T02050151  RH  073%=      5-min Rain = 0
KONS 110720Z 18006KT 21/15 A3017 RMK A01 T02050151  RH  072%=      5-min Rain = 0
KONS 110725Z 18007KT 21/15 A3016 RMK A01 T02050150  RH  072%=      5-min Rain = 0
KONS 110730Z 18007KT 21/15 A3016 RMK A01 T02060151  RH  072%=      5-min Rain = 0
KONS 110735Z 18007KT 21/15 A3016 RMK A01 T02070151  RH  072%=      5-min Rain = 0
KONS 110740Z 17006KT 21/15 A3016 RMK A01 T02090151  RH  071%=      5-min Rain = 0
KONS 110745Z 17007KT 21/15 A3016 RMK A01 T02090150  RH  071%=      5-min Rain = 0
KONS 110750Z 17007KT 21/15 A3016 RMK A01 T02080150  RH  071%=      5-min Rain = 0
KONS 110755Z 18006KT 21/15 A3016 RMK A01 T02070150  RH  072%=      5-min Rain = 0
KONS 110800Z 17005KT 21/15 A3016 RMK A01 T02090151  RH  071%=      5-min Rain = 0
KONS 110805Z 17005KT 21/15 A3016 RMK A01 T02070149  RH  071%=      5-min Rain = 0
KONS 110810Z 17005KT 20/15 A3016 RMK A01 T02030147  RH  072%=      5-min Rain = 0
KONS 110815Z 17005KT 20/15 A3016 RMK A01 T02000147  RH  073%=      5-min Rain = 0
KONS 110820Z 16006KT 20/15 A3016 RMK A01 T01960146  RH  074%=      5-min Rain = 0
KONS 110825Z 16006KT 19/15 A3016 RMK A01 T01940147  RH  076%=      5-min Rain = 0
KONS 110830Z 16007KT 19/15 A3015 RMK A01 T01940148  RH  076%=      5-min Rain = 0
KONS 110835Z 17007KT 19/15 A3015 RMK A01 T01930148  RH  077%=      5-min Rain = 0
KONS 110840Z 17006KT 19/15 A3016 RMK A01 T01940150  RH  077%=      5-min Rain = 0
KONS 110845Z 18006KT 20/15 A3016 RMK A01 T01960151  RH  076%=      5-min Rain = 0
KONS 110850Z 18006KT 20/15 A3016 RMK A01 T01950149  RH  076%=      5-min Rain = 0
KONS 110855Z 18006KT 19/15 A3016 RMK A01 T01920148  RH  077%=      5-min Rain = 0
KONS 110900Z 18005KT 19/15 A3016 RMK A01 T01910148  RH  078%=      5-min Rain = 0
KONS 110905Z 18004KT 19/15 A3016 RMK A01 T01900148  RH  078%=      5-min Rain = 0
KONS 110910Z 18004KT 19/15 A3015 RMK A01 T01890149  RH  079%=      5-min Rain = 0
KONS 110915Z 18005KT 19/15 A3015 RMK A01 T01900149  RH  079%=      5-min Rain = 0
KONS 110920Z 18006KT 19/15 A3015 RMK A01 T01890148  RH  079%=      5-min Rain = 0
KONS 110925Z 18006KT 19/15 A3015 RMK A01 T01890149  RH  079%=      5-min Rain = 0
KONS 110930Z 17006KT 19/15 A3015 RMK A01 T01890149  RH  079%=      5-min Rain = 0
KONS 110935Z 17005KT 19/15 A3015 RMK A01 T01890149  RH  080%=      5-min Rain = 0
KONS 110940Z 17005KT 19/15 A3015 RMK A01 T01890149  RH  079%=      5-min Rain = 0
KONS 110945Z 17004KT 19/15 A3015 RMK A01 T01880149  RH  080%=      5-min Rain = 0
KONS 110950Z 17004KT 19/15 A3015 RMK A01 T01870149  RH  080%=      5-min Rain = 0
KONS 110955Z 17004KT 19/15 A3015 RMK A01 T01870148  RH  080%=      5-min Rain = 0
KONS 111000Z 17004KT 19/15 A3015 RMK A01 T01870149  RH  080%=      5-min Rain = 0
KONS 111005Z 17004KT 19/15 A3015 RMK A01 T01870149  RH  080%=      5-min Rain = 0
KONS 111010Z 17004KT 19/15 A3015 RMK A01 T01860148  RH  080%=      5-min Rain = 0
KONS 111015Z 17004KT 19/15 A3015 RMK A01 T01860148  RH  080%=      5-min Rain = 0
KONS 111020Z 17003KT 19/15 A3015 RMK A01 T01850148  RH  081%=      5-min Rain = 0
KONS 111025Z 17003KT 19/15 A3015 RMK A01 T01850148  RH  081%=      5-min Rain = 0
KONS 111030Z 17003KT 19/15 A3015 RMK A01 T01850148  RH  081%=      5-min Rain = 0
KONS 111035Z 17003KT 18/15 A3015 RMK A01 T01840147  RH  081%=      5-min Rain = 0
KONS 111040Z 17002KT 18/15 A3015 RMK A01 T01840148  RH  081%=      5-min Rain = 0
KONS 111045Z 18002KT 18/15 A3015 RMK A01 T01840149  RH  082%=      5-min Rain = 0
KONS 111050Z 18002KT 18/15 A3015 RMK A01 T01830147  RH  082%=      5-min Rain = 0
KONS 111055Z 18003KT 18/15 A3015 RMK A01 T01840150  RH  082%=      5-min Rain = 0
KONS 111100Z 18004KT 19/15 A3015 RMK A01 T01860152  RH  082%=      5-min Rain = 0
KONS 111105Z 18004KT 19/15 A3015 RMK A01 T01880153  RH  082%=      5-min Rain = 0
KONS 111110Z 18004KT 19/15 A3015 RMK A01 T01900153  RH  081%=      5-min Rain = 0
KONS 111115Z 19004KT 19/15 A3015 RMK A01 T01900153  RH  081%=      5-min Rain = 0
KONS 111120Z 21004KT 19/15 A3015 RMK A01 T01900152  RH  080%=      5-min Rain = 0
KONS 111125Z 21005KT 19/15 A3015 RMK A01 T01880150  RH  080%=      5-min Rain = 0
KONS 111130Z 21005KT 19/15 A3015 RMK A01 T01860149  RH  081%=      5-min Rain = 0
KONS 111135Z 21005KT 18/15 A3015 RMK A01 T01840149  RH  082%=      5-min Rain = 0
KONS 111140Z 20005KT 18/15 A3015 RMK A01 T01820149  RH  082%=      5-min Rain = 0
KONS 111145Z 20006KT 18/15 A3015 RMK A01 T01810148  RH  083%=      5-min Rain = 0
KONS 111150Z 19007KT 18/15 A3015 RMK A01 T01800148  RH  083%=      5-min Rain = 0
KONS 111155Z 19007KT 18/15 A3015 RMK A01 T01820151  RH  084%=      5-min Rain = 0
KONS 111200Z 19007KT 19/15 A3015 RMK A01 T01850153  RH  084%=      5-min Rain = 0
KONS 111205Z 18007KT 19/16 A3015 RMK A01 T01870155  RH  083%=      5-min Rain = 0
KONS 111210Z 18007KT 19/16 A3015 RMK A01 T01890156  RH  083%=      5-min Rain = 0
KONS 111215Z 18007KT 19/16 A3015 RMK A01 T01900157  RH  083%=      5-min Rain = 0
KONS 111220Z 18006KT 19/16 A3015 RMK A01 T01920158  RH  082%=      5-min Rain = 0
KONS 111225Z 18006KT 19/16 A3016 RMK A01 T01940159  RH  082%=      5-min Rain = 0
KONS 111230Z 18007KT 20/16 A3016 RMK A01 T01960160  RH  082%=      5-min Rain = 0
KONS 111235Z 18007KT 20/16 A3016 RMK A01 T01970160  RH  081%=      5-min Rain = 0
KONS 111240Z 17007KT 20/16 A3016 RMK A01 T01990161  RH  080%=      5-min Rain = 0
KONS 111245Z 17006KT 20/16 A3016 RMK A01 T02020162  RH  079%=      5-min Rain = 0
KONS 111250Z 17006KT 21/16 A3016 RMK A01 T02050162  RH  078%=      5-min Rain = 0
KONS 111255Z 17007KT 21/16 A3015 RMK A01 T02090162  RH  076%=      5-min Rain = 0
KONS 111300Z 17008KT 21/16 A3015 RMK A01 T02130161  RH  074%=      5-min Rain = 0
KONS 111305Z 18007KT 22/16 A3016 RMK A01 T02160159  RH  071%=      5-min Rain = 0
KONS 111310Z 18006KT 22/16 A3016 RMK A01 T02190160  RH  071%=      5-min Rain = 0
KONS 111315Z 18007KT 22/16 A3016 RMK A01 T02210158  RH  069%=      5-min Rain = 0
KONS 111320Z 18008KT 22/16 A3016 RMK A01 T02220155  RH  067%=      5-min Rain = 0
KONS 111325Z 18008KT 23/15 A3016 RMK A01 T02250154  RH  065%=      5-min Rain = 0
KONS 111330Z 18009KT 23/15 A3016 RMK A01 T02280152  RH  064%=      5-min Rain = 0
KONS 111335Z 19010KT 24/15 A3016 RMK A01 T02350150  RH  060%=      5-min Rain = 0
KONS 111340Z 18012KT 24/15 A3016 RMK A01 T02420147  RH  056%=      5-min Rain = 0
KONS 111345Z 19013KT 24/14 A3016 RMK A01 T02430144  RH  055%=      5-min Rain = 0
KONS 111350Z 19011G16KT 24/15 A3016 RMK A01 T02430145  RH  056%=      5-min Rain = 0
KONS 111355Z 19013KT 24/14 A3017 RMK A01 T02440144  RH  055%=      5-min Rain = 0
KONS 111400Z 19010G15KT 24/15 A3017 RMK A01 T02420146  RH  056%=      5-min Rain = 0
KONS 111405Z 18010KT 24/15 A3017 RMK A01 T02430146  RH  056%=      5-min Rain = 0
KONS 111410Z 18012KT 24/15 A3017 RMK A01 T02430145  RH  055%=      5-min Rain = 0
KONS 111415Z 19011KT 25/15 A3017 RMK A01 T02460146  RH  055%=      5-min Rain = 0
KONS 111420Z 18012G17KT 25/15 A3017 RMK A01 T02480145  RH  054%=      5-min Rain = 0
KONS 111425Z 18012KT 25/15 A3017 RMK A01 T02510145  RH  053%=      5-min Rain = 0
KONS 111430Z 19012KT 25/15 A3017 RMK A01 T02540145  RH  052%=      5-min Rain = 0
KONS 111435Z 19014KT 25/14 A3017 RMK A01 T02540144  RH  052%=      5-min Rain = 0
KONS 111440Z 19013G18KT 26/14 A3017 RMK A01 T02560144  RH  051%=      5-min Rain = 0
KONS 111445Z 19014KT 26/14 A3017 RMK A01 T02610143  RH  049%=      5-min Rain = 0
KONS 111450Z 20013KT 26/14 A3017 RMK A01 T02640144  RH  048%=      5-min Rain = 0
KONS 111455Z 20013KT 27/14 A3017 RMK A01 T02660142  RH  048%=      5-min Rain = 0
KONS 111500Z 19011G16KT 27/14 A3017 RMK A01 T02710143  RH  046%=      5-min Rain = 0
KONS 111505Z 19012KT 28/14 A3017 RMK A01 T02760140  RH  044%=      5-min Rain = 0
KONS 111510Z 19011G16KT 28/14 A3017 RMK A01 T02820139  RH  042%=      5-min Rain = 0
KONS 111515Z 19012KT 28/14 A3017 RMK A01 T02830139  RH  042%=      5-min Rain = 0
KONS 111520Z 19012G17KT 28/14 A3017 RMK A01 T02790137  RH  043%=      5-min Rain = 0
KONS 111525Z 18011G16KT 28/14 A3017 RMK A01 T02780136  RH  042%=      5-min Rain = 0
KONS 111530Z 18013KT 28/14 A3016 RMK A01 T02830136  RH  041%=      5-min Rain = 0
KONS 111535Z 18012G17KT 29/13 A3016 RMK A01 T02850134  RH  040%=      5-min Rain = 0
KONS 111540Z 19013KT 29/13 A3016 RMK A01 T02850134  RH  040%=      5-min Rain = 0
KONS 111545Z 18012G17KT 28/14 A3016 RMK A01 T02810136  RH  042%=      5-min Rain = 0
KONS 111550Z 19012KT 28/14 A3016 RMK A01 T02830136  RH  041%=      5-min Rain = 0
KONS 111555Z 19012KT 28/13 A3016 RMK A01 T02840133  RH  040%=      5-min Rain = 0
KONS 111600Z 19010KT 29/13 A3016 RMK A01 T02870132  RH  039%=      5-min Rain = 0
KONS 111605Z 18009G14KT 29/13 A3016 RMK A01 T02880129  RH  038%=      5-min Rain = 0
KONS 111610Z 18012KT 29/12 A3016 RMK A01 T02890123  RH  037%=      5-min Rain = 0
KONS 111615Z 17011KT 29/12 A3016 RMK A01 T02910123  RH  036%=      5-min Rain = 0
KONS 111620Z 18012KT 30/12 A3016 RMK A01 T02950123  RH  035%=      5-min Rain = 0
KONS 111625Z 19010KT 30/12 A3016 RMK A01 T02970116  RH  033%=      5-min Rain = 0
KONS 111630Z 19011KT 30/12 A3016 RMK A01 T02980122  RH  034%=      5-min Rain = 0
KONS 111635Z 19011KT 30/12 A3016 RMK A01 T02970120  RH  034%=      5-min Rain = 0
KONS 111640Z 19011G16KT 30/12 A3016 RMK A01 T02990121  RH  034%=      5-min Rain = 0
KONS 111645Z 17010G16KT 30/12 A3016 RMK A01 T03010121  RH  034%=      5-min Rain = 0
KONS 111650Z 17011G17KT 31/12 A3015 RMK A01 T03050122  RH  033%=      5-min Rain = 0
KONS 111655Z 18013G18KT 31/12 A3015 RMK A01 T03070122  RH  033%=      5-min Rain = 0
KONS 111700Z 17011G18KT 31/12 A3015 RMK A01 T03070121  RH  033%=      5-min Rain = 0
KONS 111705Z 19012G18KT 31/12 A3015 RMK A01 T03050123  RH  033%=      5-min Rain = 0
KONS 111710Z 17011G16KT 31/12 A3015 RMK A01 T03050122  RH  033%=      5-min Rain = 0
KONS 111715Z 17012KT 31/12 A3015 RMK A01 T03100122  RH  032%=      5-min Rain = 0
KONS 111720Z 18011KT 30/12 A3015 RMK A01 T03030123  RH  034%=      5-min Rain = 0
KONS 111725Z 19011G16KT 30/12 A3015 RMK A01 T03020123  RH  034%=      5-min Rain = 0
KONS 111730Z 19011G16KT 31/12 A3015 RMK A01 T03080123  RH  033%=      5-min Rain = 0
KONS 111735Z 18012G20KT 31/12 A3015 RMK A01 T03070122  RH  033%=      5-min Rain = 0
KONS 111740Z 15013G18KT 31/12 A3014 RMK A01 T03070122  RH  033%=      5-min Rain = 0
KONS 111745Z 17014G19KT 31/12 A3014 RMK A01 T03120124  RH  032%=      5-min Rain = 0
KONS 111750Z 16013KT 31/12 A3014 RMK A01 T03130123  RH  032%=      5-min Rain = 0
KONS 111755Z 17013G19KT 31/12 A3014 RMK A01 T03130124  RH  032%=      5-min Rain = 0
KONS 111800Z 15014G20KT 31/12 A3014 RMK A01 T03140123  RH  032%=      5-min Rain = 0
KONS 111805Z 16014G20KT 32/12 A3014 RMK A01 T03150121  RH  031%=      5-min Rain = 0
KONS 111810Z 17015G21KT 31/12 A3014 RMK A01 T03140121  RH  031%=      5-min Rain = 0
KONS 111815Z 16014G19KT 32/12 A3013 RMK A01 T03160124  RH  031%=      5-min Rain = 0
KONS 111820Z 17014KT 31/13 A3013 RMK A01 T03110125  RH  033%=      5-min Rain = 0
KONS 111825Z 17013KT 31/12 A3013 RMK A01 T03050123  RH  033%=      5-min Rain = 0
KONS 111830Z 18016G21KT 31/12 A3013 RMK A01 T03130117  RH  031%=      5-min Rain = 0
KONS 111835Z 18013G19KT 31/12 A3013 RMK A01 T03140118  RH  031%=      5-min Rain = 0
KONS 111840Z 18013G19KT 32/12 A3012 RMK A01 T03160120  RH  031%=      5-min Rain = 0
KONS 111845Z 16013G21KT 32/12 A3012 RMK A01 T03160121  RH  031%=      5-min Rain = 0
KONS 111850Z 16014G22KT 32/12 A3012 RMK A01 T03170122  RH  031%=      5-min Rain = 0
KONS 111855Z 16014G19KT 31/12 A3011 RMK A01 T03130122  RH  032%=      5-min Rain = 0
KONS 111900Z 16013G19KT 31/12 A3011 RMK A01 T03130118  RH  031%=      5-min Rain = 0
KONS 111905Z 17013G20KT 31/12 A3011 RMK A01 T03080117  RH  031%=      5-min Rain = 0
KONS 111910Z 18016G21KT 31/12 A3011 RMK A01 T03130115  RH  030%=      5-min Rain = 0
KONS 111915Z 17017KT 31/11 A3011 RMK A01 T03100114  RH  031%=      5-min Rain = 0
KONS 111920Z 17015G21KT 32/12 A3011 RMK A01 T03200115  RH  029%=      5-min Rain = 0
KONS 111925Z 17015G24KT 32/12 A301 RMK A01 T03210118  RH  029%=      5-min Rain = 0
KONS 111930Z 17014G22KT 32/12 A301 RMK A01 T03230119  RH  029%=      5-min Rain = 0
KONS 111935Z 18015G21KT 32/12 A301 RMK A01 T03180121  RH  030%=      5-min Rain = 0
KONS 111940Z 15016KT 32/12 A301 RMK A01 T03190120  RH  030%=      5-min Rain = 0
KONS 111945Z 16016G24KT 32/12 A301 RMK A01 T03220118  RH  029%=      5-min Rain = 0
KONS 111950Z 17015KT 31/12 A301 RMK A01 T03140117  RH  030%=      5-min Rain = 0
KONS 111955Z 16014G21KT 31/12 A301 RMK A01 T03110119  RH  031%=      5-min Rain = 0
KONS 112000Z 17017G27KT 32/12 A3009 RMK A01 T03190122  RH  031%=      5-min Rain = 0
KONS 112005Z 18015G22KT 32/12 A3009 RMK A01 T03220120  RH  030%=      5-min Rain = 0
KONS 112010Z 17015G20KT 32/12 A3009 RMK A01 T03230117  RH  029%=      5-min Rain = 0
KONS 112015Z 17014G24KT 32/12 A3009 RMK A01 T03160118  RH  030%=      5-min Rain = 0
KONS 112020Z 17016G23KT 32/12 A3009 RMK A01 T03220119  RH  030%=      5-min Rain = 0
KONS 112025Z 16013G19KT 32/12 A3008 RMK A01 T03230118  RH  029%=      5-min Rain = 0
KONS 112030Z 16015G22KT 33/12 A3008 RMK A01 T03330117  RH  027%=      5-min Rain = 0
KONS 112035Z 16015G21KT 33/12 A3008 RMK A01 T03270117  RH  028%=      5-min Rain = 0
KONS 112040Z 17016G22KT 32/12 A3008 RMK A01 T03200118  RH  029%=      5-min Rain = 0
KONS 112045Z 16015G22KT 33/12 A3007 RMK A01 T03300117  RH  028%=      5-min Rain = 0
KONS 112050Z 16016KT 33/12 A3007 RMK A01 T03270115  RH  028%=      5-min Rain = 0
KONS 112055Z 17016G23KT 33/12 A3007 RMK A01 T03330117  RH  027%=      5-min Rain = 0
KONS 112100Z 17016G22KT 33/12 A3007 RMK A01 T03290115  RH  028%=      5-min Rain = 0
KONS 112105Z 17018G23KT 32/12 A3006 RMK A01 T03180115  RH  029%=      5-min Rain = 0
KONS 112110Z 16015G20KT 32/12 A3006 RMK A01 T03150115  RH  030%=      5-min Rain = 0
KONS 112115Z 15018KT 32/12 A3006 RMK A01 T03190116  RH  029%=      5-min Rain = 0
KONS 112120Z 17016G22KT 33/12 A3005 RMK A01 T03270117  RH  028%=      5-min Rain = 0
KONS 112125Z 17017G22KT 33/12 A3005 RMK A01 T03310116  RH  027%=      5-min Rain = 0
KONS 112130Z 16015G20KT 32/12 A3005 RMK A01 T03200115  RH  029%=      5-min Rain = 0
KONS 112135Z 16016G24KT 32/12 A3005 RMK A01 T03180115  RH  029%=      5-min Rain = 0
KONS 112140Z 17015G23KT 32/12 A3005 RMK A01 T03200116  RH  029%=      5-min Rain = 0
KONS 112145Z 16017KT 33/12 A3005 RMK A01 T03250116  RH  028%=      5-min Rain = 0
KONS 112150Z 15018G23KT 33/12 A3004 RMK A01 T03290115  RH  028%=      5-min Rain = 0
KONS 112155Z 17017KT 33/11 A3004 RMK A01 T03280114  RH  028%=      5-min Rain = 0
KONS 112200Z 16016G22KT 32/11 A3004 RMK A01 T03230114  RH  028%=      5-min Rain = 0
KONS 112205Z 14013KT 32/11 A3004 RMK A01 T03200112  RH  028%=      5-min Rain = 0
KONS 112210Z 16017G23KT 32/11 A3004 RMK A01 T03230113  RH  028%=      5-min Rain = 0
KONS 112215Z 15016G21KT 33/11 A3004 RMK A01 T03260113  RH  028%=      5-min Rain = 0
KONS 112220Z 17016KT 33/11 A3004 RMK A01 T03320113  RH  027%=      5-min Rain = 0
KONS 112225Z 17015G20KT 33/11 A3004 RMK A01 T03330114  RH  027%=      5-min Rain = 0
KONS 112230Z 16015KT 33/11 A3004 RMK A01 T03270113  RH  028%=      5-min Rain = 0
KONS 112235Z 16015G22KT 33/11 A3004 RMK A01 T03270113  RH  028%=      5-min Rain = 0
KONS 112240Z 17014G19KT 34/11 A3004 RMK A01 T03350114  RH  026%=      5-min Rain = 0
KONS 112245Z 16016G23KT 34/11 A3003 RMK A01 T03350113  RH  026%=      5-min Rain = 0
KONS 112250Z 17016G22KT 34/11 A3003 RMK A01 T03370114  RH  026%=      5-min Rain = 0
KONS 112255Z 15017KT 33/11 A3003 RMK A01 T03340113  RH  026%=      5-min Rain = 0
KONS 112300Z 16017KT 33/11 A3003 RMK A01 T03260113  RH  028%=      5-min Rain = 0
KONS 112305Z 17018G23KT 32/11 A3003 RMK A01 T03220111  RH  028%=      5-min Rain = 0
KONS 112310Z 16015G20KT 32/11 A3004 RMK A01 T03190112  RH  029%=      5-min Rain = 0
KONS 112315Z 17013G18KT 32/11 A3004 RMK A01 T03170113  RH  029%=      5-min Rain = 0
KONS 112320Z 18012KT 32/11 A3004 RMK A01 T03160113  RH  029%=      5-min Rain = 0
KONS 112325Z 18014G20KT 32/11 A3003 RMK A01 T03160112  RH  029%=      5-min Rain = 0
KONS 112330Z 18014KT 32/11 A3003 RMK A01 T03190114  RH  029%=      5-min Rain = 0
KONS 112335Z 18015G20KT 32/11 A3003 RMK A01 T03210113  RH  028%=      5-min Rain = 0
KONS 112340Z 18014KT 32/11 A3003 RMK A01 T03160114  RH  029%=      5-min Rain = 0
KONS 112345Z 17014G19KT 31/11 A3003 RMK A01 T03130114  RH  030%=      5-min Rain = 0
KONS 112350Z 17016KT 31/11 A3003 RMK A01 T03110114  RH  030%=      5-min Rain = 0
KONS 112355Z 16015KT 31/11 A3003 RMK A01 T03090113  RH  031%=      5-min Rain = 0
KONS 120000Z 16014G19KT 31/11 A3004 RMK A01 T03080114  RH  031%=      5-min Rain = 0
KONS 120005Z 17017G24KT 31/12 A3004 RMK A01 T03050116  RH  032%=      5-min Rain = 0
KONS 120010Z 16016G21KT 30/12 A3004 RMK A01 T03020117  RH  033%=      5-min Rain = 0
KONS 120015Z 16015KT 30/12 A3004 RMK A01 T03010117  RH  033%=      5-min Rain = 0
KONS 120020Z 15014KT 30/12 A3004 RMK A01 T03030115  RH  032%=      5-min Rain = 0
KONS 120025Z 14012KT 31/11 A3004 RMK A01 T03050113  RH  031%=      5-min Rain = 0
KONS 120030Z 16014G20KT 31/11 A3004 RMK A01 T03070113  RH  031%=      5-min Rain = 0
KONS 120035Z 16010KT 31/12 A3004 RMK A01 T03080116  RH  031%=      5-min Rain = 0
KONS 120040Z 15011KT 31/12 A3004 RMK A01 T03080117  RH  031%=      5-min Rain = 0
KONS 120045Z 15013G18KT 31/12 A3004 RMK A01 T03060123  RH  033%=      5-min Rain = 0
KONS 120050Z 14008G13KT 29/15 A3005 RMK A01 T02890148  RH  043%=      5-min Rain = 0.06
KONS 120055Z 15008G13KT 27/16 A3005 RMK A01 T02720156  RH  050%=      5-min Rain = 0.01
KONS 120100Z 15010G17KT 28/15 A3005 RMK A01 T02780148  RH  046%=      5-min Rain = 0
KONS 120105Z 16010KT 28/14 A3005 RMK A01 T02830144  RH  044%=      5-min Rain = 0
KONS 120110Z 15012KT 29/14 A3005 RMK A01 T02860140  RH  042%=      5-min Rain = 0
KONS 120115Z 16012KT 29/14 A3005 RMK A01 T02870140  RH  041%=      5-min Rain = 0
KONS 120120Z 16012KT 29/14 A3005 RMK A01 T02880137  RH  040%=      5-min Rain = 0
KONS 120125Z 16012KT 29/14 A3005 RMK A01 T02890135  RH  040%=      5-min Rain = 0
KONS 120130Z 15011KT 29/13 A3005 RMK A01 T02900134  RH  039%=      5-min Rain = 0
KONS 120135Z 16010KT 29/13 A3005 RMK A01 T02900133  RH  039%=      5-min Rain = 0
KONS 120140Z 16009KT 29/14 A3005 RMK A01 T02870135  RH  040%=      5-min Rain = 0
KONS 120145Z 15008KT 29/14 A3005 RMK A01 T02870135  RH  040%=      5-min Rain = 0
KONS 120150Z 14006KT 28/14 A3005 RMK A01 T02840138  RH  041%=      5-min Rain = 0
KONS 120155Z 12005KT 28/14 A3006 RMK A01 T02790144  RH  044%=      5-min Rain = 0
KONS 120200Z 12005KT 27/14 A3006 RMK A01 T02730144  RH  046%=      5-min Rain = 0
KONS 120205Z 12006KT 27/15 A3006 RMK A01 T02690149  RH  049%=      5-min Rain = 0
KONS 120210Z 12006KT 27/15 A3006 RMK A01 T02670146  RH  048%=      5-min Rain = 0
KONS 120215Z 12006KT 27/15 A3006 RMK A01 T02650148  RH  050%=      5-min Rain = 0
KONS 120220Z 12005KT 26/15 A3006 RMK A01 T02610149  RH  051%=      5-min Rain = 0
KONS 120225Z 13005KT 26/15 A3006 RMK A01 T02590148  RH  051%=      5-min Rain = 0
KONS 120230Z 13005KT 26/15 A3006 RMK A01 T02570149  RH  052%=      5-min Rain = 0
KONS 120235Z 14005KT 26/15 A3007 RMK A01 T02570148  RH  052%=      5-min Rain = 0
KONS 120240Z 14006KT 26/15 A3007 RMK A01 T02580147  RH  052%=      5-min Rain = 0
KONS 120245Z 14007KT 26/14 A3007 RMK A01 T02610144  RH  049%=      5-min Rain = 0
KONS 120250Z 14007KT 26/14 A3008 RMK A01 T02640141  RH  048%=      5-min Rain = 0
KONS 120255Z 14007KT 27/14 A3008 RMK A01 T02660141  RH  047%=      5-min Rain = 0
KONS 120300Z 13006KT 27/14 A3008 RMK A01 T02660141  RH  047%=      5-min Rain = 0
KONS 120305Z 13006KT 27/14 A3008 RMK A01 T02650141  RH  048%=      5-min Rain = 0
KONS 120310Z 13007KT 27/14 A3008 RMK A01 T02650142  RH  048%=      5-min Rain = 0
KONS 120315Z 14007KT 27/14 A3009 RMK A01 T02660142  RH  047%=      5-min Rain = 0
KONS 120320Z 14007KT 27/14 A3009 RMK A01 T02660143  RH  048%=      5-min Rain = 0
KONS 120325Z 14008KT 27/14 A3009 RMK A01 T02650143  RH  048%=      5-min Rain = 0
KONS 120330Z 14008KT 26/14 A3009 RMK A01 T02640142  RH  048%=      5-min Rain = 0
KONS 120335Z 14008KT 26/14 A3009 RMK A01 T02620142  RH  048%=      5-min Rain = 0
KONS 120340Z 13009KT 26/14 A3009 RMK A01 T02620141  RH  048%=      5-min Rain = 0
KONS 120345Z 14009KT 26/14 A3009 RMK A01 T02620141  RH  048%=      5-min Rain = 0
KONS 120350Z 14009KT 26/14 A301 RMK A01 T02620140  RH  048%=      5-min Rain = 0
KONS 120355Z 14009KT 26/14 A301 RMK A01 T02630140  RH  048%=      5-min Rain = 0
KONS 120400Z 14008KT 26/14 A301 RMK A01 T02630140  RH  048%=      5-min Rain = 0
KONS 120405Z 14008KT 26/14 A301 RMK A01 T02630141  RH  048%=      5-min Rain = 0
KONS 120410Z 15007KT 26/14 A301 RMK A01 T02630142  RH  048%=      5-min Rain = 0
KONS 120415Z 19012G22KT 26/15 A3011 RMK A01 T02610146  RH  050%=      5-min Rain = 0
KONS 120420Z 21023G31KT 25/15 A3011 RMK A01 T02460154  RH  058%=      5-min Rain = 0
KONS 120425Z 23025G32KT 23/16 A3011 RMK A01 T02270161  RH  068%=      5-min Rain = 0.04
KONS 120430Z 25023G32KT 22/15 A3012 RMK A01 T02240153  RH  066%=      5-min Rain = 0.01
KONS 120435Z 25015G21KT 23/16 A3012 RMK A01 T02320160  RH  065%=      5-min Rain = 0
KONS 120440Z 24009G14KT 23/17 A3012 RMK A01 T02340166  RH  067%=      5-min Rain = 0
KONS 120445Z 21005KT 23/16 A3012 RMK A01 T02340161  RH  065%=      5-min Rain = 0
KONS 120450Z 22007G13KT 24/16 A3012 RMK A01 T02430162  RH  062%=      5-min Rain = 0
KONS 120455Z 26008G13KT 23/17 A3013 RMK A01 T02330168  RH  069%=      5-min Rain = 0
KONS 120500Z 23007G12KT 23/16 A3012 RMK A01 T02340163  RH  066%=      5-min Rain = 0

Page generated in 0.0289 seconds.